sensor_id;sensor_type;location;lat;lon;timestamp;pressure;altitude;pressure_sealevel;temperature;humidity
53526;BME280;40551;50.478;19.378;2022-08-03T00:02:23;98227.39;;;15.24;75.25
53526;BME280;40551;50.478;19.378;2022-08-03T00:04:54;98229.56;;;15.12;75.32
53526;BME280;40551;50.478;19.378;2022-08-03T00:07:26;98232.08;;;15.06;75.62
53526;BME280;40551;50.478;19.378;2022-08-03T00:09:56;98233.85;;;15.06;75.97
53526;BME280;40551;50.478;19.378;2022-08-03T00:12:27;98232.26;;;14.99;76.27
53526;BME280;40551;50.478;19.378;2022-08-03T00:14:59;98233.91;;;15.00;76.44
53526;BME280;40551;50.478;19.378;2022-08-03T00:17:31;98233.23;;;14.99;76.40
53526;BME280;40551;50.478;19.378;2022-08-03T00:20:21;98233.15;;;15.00;76.75
53526;BME280;40551;50.478;19.378;2022-08-03T00:22:52;98231.17;;;14.97;76.83
53526;BME280;40551;50.478;19.378;2022-08-03T00:25:24;98224.77;;;14.95;76.31
53526;BME280;40551;50.478;19.378;2022-08-03T00:27:56;98222.42;;;14.89;75.90
53526;BME280;40551;50.478;19.378;2022-08-03T00:30:27;98224.27;;;14.83;75.95
53526;BME280;40551;50.478;19.378;2022-08-03T00:33:00;98223.25;;;14.75;76.02
53526;BME280;40551;50.478;19.378;2022-08-03T00:35:32;98224.73;;;14.71;76.11
53526;BME280;40551;50.478;19.378;2022-08-03T00:38:20;98225.66;;;14.67;76.11
53526;BME280;40551;50.478;19.378;2022-08-03T00:40:50;98225.64;;;14.61;76.50
53526;BME280;40551;50.478;19.378;2022-08-03T00:43:25;98224.77;;;14.56;76.83
53526;BME280;40551;50.478;19.378;2022-08-03T00:45:56;98221.95;;;14.58;77.11
53526;BME280;40551;50.478;19.378;2022-08-03T00:48:26;98221.77;;;14.60;77.25
53526;BME280;40551;50.478;19.378;2022-08-03T00:51:03;98227.98;;;14.54;77.01
53526;BME280;40551;50.478;19.378;2022-08-03T00:53:36;98228.82;;;14.43;76.39
53526;BME280;40551;50.478;19.378;2022-08-03T00:56:08;98225.91;;;14.30;76.26
53526;BME280;40551;50.478;19.378;2022-08-03T00:58:44;98226.39;;;14.23;76.85
53526;BME280;40551;50.478;19.378;2022-08-03T01:01:16;98225.99;;;14.24;77.19
53526;BME280;40551;50.478;19.378;2022-08-03T01:03:47;98229.10;;;14.28;77.50
53526;BME280;40551;50.478;19.378;2022-08-03T01:06:22;98232.45;;;14.35;77.77
53526;BME280;40551;50.478;19.378;2022-08-03T01:09:04;98235.54;;;14.40;77.79
53526;BME280;40551;50.478;19.378;2022-08-03T01:11:43;98235.80;;;14.38;77.24
53526;BME280;40551;50.478;19.378;2022-08-03T01:14:36;98235.63;;;14.32;76.99
53526;BME280;40551;50.478;19.378;2022-08-03T01:17:12;98236.62;;;14.33;77.25
53526;BME280;40551;50.478;19.378;2022-08-03T01:19:53;98234.64;;;14.35;77.29
53526;BME280;40551;50.478;19.378;2022-08-03T01:22:54;98238.43;;;14.38;77.36
53526;BME280;40551;50.478;19.378;2022-08-03T01:25:37;98240.75;;;14.37;77.25
53526;BME280;40551;50.478;19.378;2022-08-03T01:28:24;98237.09;;;14.35;77.23
53526;BME280;40551;50.478;19.378;2022-08-03T01:31:02;98238.55;;;14.34;77.35
53526;BME280;40551;50.478;19.378;2022-08-03T01:33:38;98241.45;;;14.37;77.42
53526;BME280;40551;50.478;19.378;2022-08-03T01:36:15;98240.59;;;14.37;77.34
53526;BME280;40551;50.478;19.378;2022-08-03T01:38:50;98236.86;;;14.39;77.35
53526;BME280;40551;50.478;19.378;2022-08-03T01:41:25;98239.27;;;14.40;77.43
53526;BME280;40551;50.478;19.378;2022-08-03T01:44:01;98238.14;;;14.39;77.22
53526;BME280;40551;50.478;19.378;2022-08-03T01:46:54;98241.96;;;14.37;77.34
53526;BME280;40551;50.478;19.378;2022-08-03T01:49:31;98241.17;;;14.38;77.09
53526;BME280;40551;50.478;19.378;2022-08-03T01:52:04;98242.39;;;14.38;76.95
53526;BME280;40551;50.478;19.378;2022-08-03T01:54:39;98241.49;;;14.35;76.60
53526;BME280;40551;50.478;19.378;2022-08-03T01:57:14;98237.52;;;14.27;76.51
53526;BME280;40551;50.478;19.378;2022-08-03T01:59:49;98233.45;;;14.23;76.65
53526;BME280;40551;50.478;19.378;2022-08-03T02:02:22;98229.14;;;14.15;76.55
53526;BME280;40551;50.478;19.378;2022-08-03T02:05:06;98227.27;;;14.11;76.97
53526;BME280;40551;50.478;19.378;2022-08-03T02:07:42;98225.08;;;14.10;77.18
53526;BME280;40551;50.478;19.378;2022-08-03T02:10:15;98226.02;;;14.09;77.26
53526;BME280;40551;50.478;19.378;2022-08-03T02:13:06;98225.02;;;14.09;77.35
53526;BME280;40551;50.478;19.378;2022-08-03T02:15:41;98225.64;;;14.08;77.37
53526;BME280;40551;50.478;19.378;2022-08-03T02:18:14;98228.05;;;14.10;77.54
53526;BME280;40551;50.478;19.378;2022-08-03T02:20:47;98227.61;;;14.12;77.72
53526;BME280;40551;50.478;19.378;2022-08-03T02:23:21;98228.52;;;14.14;77.73
53526;BME280;40551;50.478;19.378;2022-08-03T02:25:55;98224.83;;;14.12;77.40
53526;BME280;40551;50.478;19.378;2022-08-03T02:28:34;98228.05;;;14.06;76.85
53526;BME280;40551;50.478;19.378;2022-08-03T02:31:12;98229.77;;;14.01;76.86
53526;BME280;40551;50.478;19.378;2022-08-03T02:33:49;98225.45;;;13.95;76.95
53526;BME280;40551;50.478;19.378;2022-08-03T02:36:24;98222.30;;;13.95;77.06
53526;BME280;40551;50.478;19.378;2022-08-03T02:39:02;98219.45;;;13.97;77.26
53526;BME280;40551;50.478;19.378;2022-08-03T02:41:37;98221.39;;;13.96;76.95
53526;BME280;40551;50.478;19.378;2022-08-03T02:44:12;98219.23;;;13.84;76.55
53526;BME280;40551;50.478;19.378;2022-08-03T02:46:47;98218.54;;;13.71;76.49
53526;BME280;40551;50.478;19.378;2022-08-03T02:49:21;98216.64;;;13.67;77.17
53526;BME280;40551;50.478;19.378;2022-08-03T02:52:14;98215.87;;;13.66;77.34
53526;BME280;40551;50.478;19.378;2022-08-03T02:54:47;98214.55;;;13.61;77.31
53526;BME280;40551;50.478;19.378;2022-08-03T02:57:20;98214.49;;;13.60;77.53
53526;BME280;40551;50.478;19.378;2022-08-03T02:59:53;98217.14;;;13.60;77.78
53526;BME280;40551;50.478;19.378;2022-08-03T03:02:25;98219.05;;;13.62;78.12
53526;BME280;40551;50.478;19.378;2022-08-03T03:04:59;98230.10;;;13.57;77.38
53526;BME280;40551;50.478;19.378;2022-08-03T03:07:51;98228.36;;;13.48;77.42
53526;BME280;40551;50.478;19.378;2022-08-03T03:10:25;98230.73;;;13.47;77.91
53526;BME280;40551;50.478;19.378;2022-08-03T03:12:57;98231.35;;;13.47;77.98
53526;BME280;40551;50.478;19.378;2022-08-03T03:15:30;98226.53;;;13.50;78.33
53526;BME280;40551;50.478;19.378;2022-08-03T03:18:02;98221.09;;;13.55;78.34
53526;BME280;40551;50.478;19.378;2022-08-03T03:20:34;98222.94;;;13.53;78.07
53526;BME280;40551;50.478;19.378;2022-08-03T03:23:07;98221.92;;;13.53;78.41
53526;BME280;40551;50.478;19.378;2022-08-03T03:25:40;98221.27;;;13.57;78.59
53526;BME280;40551;50.478;19.378;2022-08-03T03:28:12;98220.02;;;13.57;78.35
53526;BME280;40551;50.478;19.378;2022-08-03T03:30:45;98214.95;;;13.59;78.35
53526;BME280;40551;50.478;19.378;2022-08-03T03:33:23;98219.23;;;13.64;78.54
53526;BME280;40551;50.478;19.378;2022-08-03T03:35:58;98223.52;;;13.72;78.87
53526;BME280;40551;50.478;19.378;2022-08-03T03:38:30;98231.30;;;13.78;78.60
53526;BME280;40551;50.478;19.378;2022-08-03T03:41:02;98234.83;;;13.75;78.17
53526;BME280;40551;50.478;19.378;2022-08-03T03:43:34;98233.80;;;13.68;77.63
53526;BME280;40551;50.478;19.378;2022-08-03T03:46:04;98237.29;;;13.68;78.12
53526;BME280;40551;50.478;19.378;2022-08-03T03:48:36;98237.02;;;13.72;78.67
53526;BME280;40551;50.478;19.378;2022-08-03T03:51:10;98234.84;;;13.85;78.70
53526;BME280;40551;50.478;19.378;2022-08-03T03:53:54;98234.62;;;14.00;78.76
53526;BME280;40551;50.478;19.378;2022-08-03T03:56:27;98240.07;;;14.08;78.28
53526;BME280;40551;50.478;19.378;2022-08-03T03:58:58;98244.98;;;14.13;78.12
53526;BME280;40551;50.478;19.378;2022-08-03T04:01:30;98248.16;;;14.33;78.66
53526;BME280;40551;50.478;19.378;2022-08-03T04:04:02;98243.55;;;14.69;79.58
53526;BME280;40551;50.478;19.378;2022-08-03T04:06:48;98245.17;;;15.06;79.13
53526;BME280;40551;50.478;19.378;2022-08-03T04:09:40;98249.95;;;15.24;78.21
53526;BME280;40551;50.478;19.378;2022-08-03T04:12:44;98256.97;;;15.16;76.54
53526;BME280;40551;50.478;19.378;2022-08-03T04:15:22;98254.23;;;15.18;77.12
53526;BME280;40551;50.478;19.378;2022-08-03T04:17:56;98258.52;;;15.45;77.85
53526;BME280;40551;50.478;19.378;2022-08-03T04:20:30;98261.02;;;15.79;77.82
53526;BME280;40551;50.478;19.378;2022-08-03T04:23:03;98264.14;;;16.23;78.28
53526;BME280;40551;50.478;19.378;2022-08-03T04:25:46;98263.59;;;16.80;77.95
53526;BME280;40551;50.478;19.378;2022-08-03T04:28:19;98265.20;;;17.30;77.24
53526;BME280;40551;50.478;19.378;2022-08-03T04:31:01;98264.98;;;17.72;75.98
53526;BME280;40551;50.478;19.378;2022-08-03T04:33:36;98265.11;;;17.99;74.93
53526;BME280;40551;50.478;19.378;2022-08-03T04:36:10;98267.70;;;18.15;73.74
53526;BME280;40551;50.478;19.378;2022-08-03T04:38:52;98263.38;;;18.27;72.88
53526;BME280;40551;50.478;19.378;2022-08-03T04:41:27;98265.90;;;18.40;72.74
53526;BME280;40551;50.478;19.378;2022-08-03T04:44:00;98272.41;;;18.51;72.14
53526;BME280;40551;50.478;19.378;2022-08-03T04:46:36;98273.95;;;18.48;70.91
53526;BME280;40551;50.478;19.378;2022-08-03T04:49:16;98276.75;;;18.39;70.76
53526;BME280;40551;50.478;19.378;2022-08-03T04:51:49;98277.91;;;18.36;70.95
53526;BME280;40551;50.478;19.378;2022-08-03T04:54:21;98274.39;;;18.55;71.78
53526;BME280;40551;50.478;19.378;2022-08-03T04:56:52;98276.90;;;19.00;72.38
53526;BME280;40551;50.478;19.378;2022-08-03T04:59:24;98278.46;;;19.43;71.71
53526;BME280;40551;50.478;19.378;2022-08-03T05:01:55;98278.11;;;19.71;70.60
53526;BME280;40551;50.478;19.378;2022-08-03T05:04:27;98271.77;;;19.86;69.67
53526;BME280;40551;50.478;19.378;2022-08-03T05:06:59;98271.40;;;19.99;69.52
53526;BME280;40551;50.478;19.378;2022-08-03T05:09:41;98272.05;;;20.54;70.18
53526;BME280;40551;50.478;19.378;2022-08-03T05:12:20;98276.23;;;21.22;70.40
53526;BME280;40551;50.478;19.378;2022-08-03T05:14:51;98278.77;;;21.82;68.95
53526;BME280;40551;50.478;19.378;2022-08-03T05:17:23;98272.87;;;22.35;68.21
53526;BME280;40551;50.478;19.378;2022-08-03T05:19:55;98271.52;;;22.84;67.12
53526;BME280;40551;50.478;19.378;2022-08-03T05:22:26;98268.89;;;23.37;66.63
53526;BME280;40551;50.478;19.378;2022-08-03T05:24:58;98271.86;;;23.96;65.95
53526;BME280;40551;50.478;19.378;2022-08-03T05:27:31;98274.49;;;24.53;64.73
53526;BME280;40551;50.478;19.378;2022-08-03T05:30:03;98273.41;;;25.06;63.96
53526;BME280;40551;50.478;19.378;2022-08-03T05:32:54;98277.45;;;25.54;62.43
53526;BME280;40551;50.478;19.378;2022-08-03T05:35:26;98277.69;;;25.74;61.30
53526;BME280;40551;50.478;19.378;2022-08-03T05:38:18;98279.29;;;25.83;60.17
53526;BME280;40551;50.478;19.378;2022-08-03T05:40:58;98283.38;;;25.82;59.63
53526;BME280;40551;50.478;19.378;2022-08-03T05:43:50;98285.91;;;26.09;59.92
53526;BME280;40551;50.478;19.378;2022-08-03T05:46:22;98281.31;;;26.50;59.44
53526;BME280;40551;50.478;19.378;2022-08-03T05:48:54;98280.12;;;26.94;58.90
53526;BME280;40551;50.478;19.378;2022-08-03T05:51:25;98280.99;;;27.35;57.98
53526;BME280;40551;50.478;19.378;2022-08-03T05:53:58;98286.08;;;27.73;57.03
53526;BME280;40551;50.478;19.378;2022-08-03T05:56:29;98282.55;;;28.03;56.48
53526;BME280;40551;50.478;19.378;2022-08-03T05:59:01;98283.55;;;28.49;56.18
53526;BME280;40551;50.478;19.378;2022-08-03T06:01:53;98283.23;;;28.96;54.83
53526;BME280;40551;50.478;19.378;2022-08-03T06:04:24;98282.09;;;29.14;53.57
53526;BME280;40551;50.478;19.378;2022-08-03T06:06:56;98278.71;;;29.29;52.88
53526;BME280;40551;50.478;19.378;2022-08-03T06:09:27;98284.84;;;29.45;52.52
53526;BME280;40551;50.478;19.378;2022-08-03T06:12:20;98290.27;;;29.67;51.98
53526;BME280;40551;50.478;19.378;2022-08-03T06:14:51;98289.75;;;29.90;51.57
53526;BME280;40551;50.478;19.378;2022-08-03T06:17:23;98292.14;;;30.05;50.97
53526;BME280;40551;50.478;19.378;2022-08-03T06:19:56;98290.83;;;30.30;50.90
53526;BME280;40551;50.478;19.378;2022-08-03T06:22:27;98293.29;;;30.73;50.60
53526;BME280;40551;50.478;19.378;2022-08-03T06:24:59;98293.94;;;31.04;49.52
53526;BME280;40551;50.478;19.378;2022-08-03T06:27:34;98287.42;;;31.17;48.55
53526;BME280;40551;50.478;19.378;2022-08-03T06:30:12;98294.87;;;31.12;48.33
53526;BME280;40551;50.478;19.378;2022-08-03T06:32:50;98293.52;;;31.20;48.23
53526;BME280;40551;50.478;19.378;2022-08-03T06:35:22;98295.15;;;31.53;48.19
53526;BME280;40551;50.478;19.378;2022-08-03T06:37:54;98297.92;;;31.79;47.34
53526;BME280;40551;50.478;19.378;2022-08-03T06:40:26;98298.25;;;31.67;46.33
53526;BME280;40551;50.478;19.378;2022-08-03T06:43:01;98304.65;;;30.95;44.60
53526;BME280;40551;50.478;19.378;2022-08-03T06:45:33;98309.23;;;29.94;44.51
53526;BME280;40551;50.478;19.378;2022-08-03T06:48:07;98309.43;;;29.16;45.96
53526;BME280;40551;50.478;19.378;2022-08-03T06:50:40;98307.19;;;28.66;47.12
53526;BME280;40551;50.478;19.378;2022-08-03T06:53:13;98312.67;;;28.46;47.91
53526;BME280;40551;50.478;19.378;2022-08-03T06:55:50;98308.86;;;28.50;49.06
53526;BME280;40551;50.478;19.378;2022-08-03T06:58:24;98310.48;;;28.46;49.28
53526;BME280;40551;50.478;19.378;2022-08-03T07:00:56;98309.73;;;28.35;48.92
53526;BME280;40551;50.478;19.378;2022-08-03T07:03:27;98312.86;;;28.40;48.99
53526;BME280;40551;50.478;19.378;2022-08-03T07:05:59;98308.22;;;28.53;49.12
53526;BME280;40551;50.478;19.378;2022-08-03T07:08:32;98305.70;;;28.75;49.00
53526;BME280;40551;50.478;19.378;2022-08-03T07:11:05;98303.30;;;29.04;49.03
53526;BME280;40551;50.478;19.378;2022-08-03T07:13:37;98302.11;;;29.34;48.50
53526;BME280;40551;50.478;19.378;2022-08-03T07:16:10;98304.77;;;29.78;48.62
53526;BME280;40551;50.478;19.378;2022-08-03T07:18:42;98302.91;;;30.42;48.39
53526;BME280;40551;50.478;19.378;2022-08-03T07:21:13;98299.65;;;31.13;47.37
53526;BME280;40551;50.478;19.378;2022-08-03T07:23:46;98298.79;;;31.77;46.30
53526;BME280;40551;50.478;19.378;2022-08-03T07:26:17;98293.23;;;32.07;44.53
53526;BME280;40551;50.478;19.378;2022-08-03T07:28:49;98294.58;;;32.27;43.97
53526;BME280;40551;50.478;19.378;2022-08-03T07:31:20;98296.11;;;32.21;42.88
53526;BME280;40551;50.478;19.378;2022-08-03T07:33:52;98292.46;;;31.95;42.21
53526;BME280;40551;50.478;19.378;2022-08-03T07:36:23;98292.30;;;31.59;41.99
53526;BME280;40551;50.478;19.378;2022-08-03T07:38:56;98292.96;;;31.39;42.67
53526;BME280;40551;50.478;19.378;2022-08-03T07:41:28;98301.58;;;30.81;42.46
53526;BME280;40551;50.478;19.378;2022-08-03T07:44:01;98300.52;;;30.24;43.58
53526;BME280;40551;50.478;19.378;2022-08-03T07:46:32;98300.48;;;29.81;43.81
53526;BME280;40551;50.478;19.378;2022-08-03T07:49:04;98298.73;;;29.31;43.85
53526;BME280;40551;50.478;19.378;2022-08-03T07:51:35;98300.00;;;28.96;44.45
53526;BME280;40551;50.478;19.378;2022-08-03T07:54:07;98301.92;;;28.76;45.27
53526;BME280;40551;50.478;19.378;2022-08-03T07:56:39;98300.43;;;28.47;45.45
53526;BME280;40551;50.478;19.378;2022-08-03T07:59:11;98297.16;;;28.19;46.55
53526;BME280;40551;50.478;19.378;2022-08-03T08:01:42;98299.50;;;27.92;47.02
53526;BME280;40551;50.478;19.378;2022-08-03T08:04:14;98298.53;;;27.67;47.52
53526;BME280;40551;50.478;19.378;2022-08-03T08:06:46;98300.85;;;27.51;47.64
53526;BME280;40551;50.478;19.378;2022-08-03T08:09:17;98298.55;;;27.21;47.96
53526;BME280;40551;50.478;19.378;2022-08-03T08:11:49;98299.23;;;27.09;48.90
53526;BME280;40551;50.478;19.378;2022-08-03T08:14:21;98299.89;;;27.14;49.59
53526;BME280;40551;50.478;19.378;2022-08-03T08:16:52;98302.31;;;27.18;49.49
53526;BME280;40551;50.478;19.378;2022-08-03T08:19:24;98298.27;;;27.17;49.46
53526;BME280;40551;50.478;19.378;2022-08-03T08:21:59;98302.69;;;27.17;49.62
53526;BME280;40551;50.478;19.378;2022-08-03T08:24:32;98301.67;;;27.13;49.50
53526;BME280;40551;50.478;19.378;2022-08-03T08:27:06;98300.34;;;27.11;49.52
53526;BME280;40551;50.478;19.378;2022-08-03T08:29:38;98304.17;;;27.13;49.91
53526;BME280;40551;50.478;19.378;2022-08-03T08:32:25;98305.26;;;27.17;49.56
53526;BME280;40551;50.478;19.378;2022-08-03T08:34:57;98305.25;;;27.19;49.72
53526;BME280;40551;50.478;19.378;2022-08-03T08:37:28;98301.39;;;27.25;49.50
53526;BME280;40551;50.478;19.378;2022-08-03T08:40:00;98309.08;;;27.32;49.77
53526;BME280;40551;50.478;19.378;2022-08-03T08:42:32;98306.73;;;27.25;48.85
53526;BME280;40551;50.478;19.378;2022-08-03T08:45:05;98306.64;;;27.11;48.51
53526;BME280;40551;50.478;19.378;2022-08-03T08:47:39;98304.38;;;26.77;48.27
53526;BME280;40551;50.478;19.378;2022-08-03T08:50:21;98306.86;;;26.68;49.36
53526;BME280;40551;50.478;19.378;2022-08-03T08:53:00;98308.67;;;26.76;49.89
53526;BME280;40551;50.478;19.378;2022-08-03T08:55:33;98308.44;;;26.77;49.79
53526;BME280;40551;50.478;19.378;2022-08-03T08:58:27;98307.66;;;26.76;49.83
53526;BME280;40551;50.478;19.378;2022-08-03T09:00:58;98304.98;;;26.93;50.06
53526;BME280;40551;50.478;19.378;2022-08-03T09:03:33;98305.04;;;27.11;50.55
53526;BME280;40551;50.478;19.378;2022-08-03T09:06:08;98307.39;;;27.24;50.24
53526;BME280;40551;50.478;19.378;2022-08-03T09:08:39;98307.50;;;27.42;50.17
53526;BME280;40551;50.478;19.378;2022-08-03T09:11:11;98307.27;;;27.54;49.53
53526;BME280;40551;50.478;19.378;2022-08-03T09:13:44;98305.45;;;27.63;49.49
53526;BME280;40551;50.478;19.378;2022-08-03T09:16:17;98305.56;;;27.61;48.79
53526;BME280;40551;50.478;19.378;2022-08-03T09:18:51;98306.37;;;27.56;49.27
53526;BME280;40551;50.478;19.378;2022-08-03T09:21:25;98308.59;;;27.55;48.53
53526;BME280;40551;50.478;19.378;2022-08-03T09:24:03;98304.43;;;27.57;48.83
53526;BME280;40551;50.478;19.378;2022-08-03T09:26:50;98301.38;;;27.55;48.82
53526;BME280;40551;50.478;19.378;2022-08-03T09:29:23;98303.98;;;27.59;48.79
53526;BME280;40551;50.478;19.378;2022-08-03T09:32:00;98297.66;;;27.59;48.66
53526;BME280;40551;50.478;19.378;2022-08-03T09:34:32;98302.08;;;27.51;47.82
53526;BME280;40551;50.478;19.378;2022-08-03T09:37:13;98299.38;;;27.47;47.76
53526;BME280;40551;50.478;19.378;2022-08-03T09:39:45;98300.31;;;27.60;48.30
53526;BME280;40551;50.478;19.378;2022-08-03T09:42:18;98299.91;;;27.57;46.76
53526;BME280;40551;50.478;19.378;2022-08-03T09:44:53;98297.98;;;27.20;47.39
53526;BME280;40551;50.478;19.378;2022-08-03T09:47:30;98296.16;;;27.06;47.89
53526;BME280;40551;50.478;19.378;2022-08-03T09:50:03;98296.50;;;27.00;47.97
53526;BME280;40551;50.478;19.378;2022-08-03T09:52:37;98297.11;;;26.90;47.71
53526;BME280;40551;50.478;19.378;2022-08-03T09:55:19;98293.48;;;26.84;49.06
53526;BME280;40551;50.478;19.378;2022-08-03T09:58:12;98284.89;;;26.99;49.98
53526;BME280;40551;50.478;19.378;2022-08-03T10:00:56;98287.23;;;27.18;49.61
53526;BME280;40551;50.478;19.378;2022-08-03T10:03:29;98288.86;;;27.36;49.37
53526;BME280;40551;50.478;19.378;2022-08-03T10:06:14;98286.71;;;27.52;48.62
53526;BME280;40551;50.478;19.378;2022-08-03T10:08:47;98283.55;;;27.66;48.51
53526;BME280;40551;50.478;19.378;2022-08-03T10:11:35;98286.44;;;27.77;47.73
53526;BME280;40551;50.478;19.378;2022-08-03T10:14:12;98286.50;;;27.91;47.13
53526;BME280;40551;50.478;19.378;2022-08-03T10:16:48;98286.34;;;27.88;46.27
53526;BME280;40551;50.478;19.378;2022-08-03T10:19:20;98286.84;;;27.53;46.03
53526;BME280;40551;50.478;19.378;2022-08-03T10:21:55;98287.20;;;27.15;46.65
53526;BME280;40551;50.478;19.378;2022-08-03T10:24:29;98282.94;;;26.98;47.54
53526;BME280;40551;50.478;19.378;2022-08-03T10:27:03;98280.14;;;26.91;47.86
53526;BME280;40551;50.478;19.378;2022-08-03T10:29:38;98283.07;;;26.82;46.89
53526;BME280;40551;50.478;19.378;2022-08-03T10:32:15;98278.00;;;26.73;46.83
53526;BME280;40551;50.478;19.378;2022-08-03T10:34:50;98276.23;;;26.73;46.13
53526;BME280;40551;50.478;19.378;2022-08-03T10:37:28;98274.38;;;26.75;46.37
53526;BME280;40551;50.478;19.378;2022-08-03T10:40:02;98275.67;;;26.74;46.42
53526;BME280;40551;50.478;19.378;2022-08-03T10:42:35;98274.88;;;26.83;46.45
53526;BME280;40551;50.478;19.378;2022-08-03T10:45:14;98273.17;;;26.94;46.88
53526;BME280;40551;50.478;19.378;2022-08-03T10:47:50;98273.48;;;27.10;46.22
53526;BME280;40551;50.478;19.378;2022-08-03T10:50:23;98268.20;;;27.20;45.34
53526;BME280;40551;50.478;19.378;2022-08-03T10:52:57;98264.09;;;27.44;45.46
53526;BME280;40551;50.478;19.378;2022-08-03T10:55:34;98259.79;;;27.60;44.77
53526;BME280;40551;50.478;19.378;2022-08-03T10:58:53;98258.09;;;27.72;44.49
53526;BME280;40551;50.478;19.378;2022-08-03T11:01:52;98257.71;;;27.88;44.52
53526;BME280;40551;50.478;19.378;2022-08-03T11:04:30;98256.30;;;27.98;44.32
53526;BME280;40551;50.478;19.378;2022-08-03T11:07:21;98258.58;;;28.10;43.95
53526;BME280;40551;50.478;19.378;2022-08-03T11:09:54;98257.48;;;28.22;44.14
53526;BME280;40551;50.478;19.378;2022-08-03T11:12:28;98251.40;;;28.41;44.23
53526;BME280;40551;50.478;19.378;2022-08-03T11:15:05;98250.65;;;28.60;43.90
53526;BME280;40551;50.478;19.378;2022-08-03T11:17:37;98248.50;;;28.76;43.07
53526;BME280;40551;50.478;19.378;2022-08-03T11:20:16;98247.73;;;28.81;42.29
53526;BME280;40551;50.478;19.378;2022-08-03T11:23:07;98245.23;;;28.69;41.70
53526;BME280;40551;50.478;19.378;2022-08-03T11:26:08;98239.70;;;28.67;42.83
53526;BME280;40551;50.478;19.378;2022-08-03T11:28:40;98239.97;;;28.78;42.67
53526;BME280;40551;50.478;19.378;2022-08-03T11:34:26;98238.25;;;28.94;42.17
53526;BME280;40551;50.478;19.378;2022-08-03T11:37:22;98239.23;;;29.05;41.29
53526;BME280;40551;50.478;19.378;2022-08-03T11:40:01;98242.16;;;28.81;39.45
53526;BME280;40551;50.478;19.378;2022-08-03T11:42:43;98242.73;;;28.59;40.14
53526;BME280;40551;50.478;19.378;2022-08-03T11:45:16;98243.48;;;28.42;39.67
53526;BME280;40551;50.478;19.378;2022-08-03T11:47:49;98240.30;;;28.32;40.12
53526;BME280;40551;50.478;19.378;2022-08-03T11:50:42;98242.18;;;28.33;40.71
53526;BME280;40551;50.478;19.378;2022-08-03T11:53:18;98231.67;;;28.43;40.83
53526;BME280;40551;50.478;19.378;2022-08-03T11:55:51;98231.79;;;28.62;40.95
53526;BME280;40551;50.478;19.378;2022-08-03T11:58:24;98228.52;;;28.79;41.74
53526;BME280;40551;50.478;19.378;2022-08-03T12:01:19;98227.60;;;28.91;40.53
53526;BME280;40551;50.478;19.378;2022-08-03T12:03:52;98225.09;;;28.91;39.73
53526;BME280;40551;50.478;19.378;2022-08-03T12:06:24;98228.73;;;28.88;39.87
53526;BME280;40551;50.478;19.378;2022-08-03T12:08:56;98224.05;;;28.85;39.69
53526;BME280;40551;50.478;19.378;2022-08-03T12:11:31;98221.71;;;28.75;38.70
53526;BME280;40551;50.478;19.378;2022-08-03T12:14:02;98215.55;;;28.71;38.43
53526;BME280;40551;50.478;19.378;2022-08-03T12:16:54;98215.05;;;28.77;39.76
53526;BME280;40551;50.478;19.378;2022-08-03T12:19:25;98214.36;;;28.87;40.11
53526;BME280;40551;50.478;19.378;2022-08-03T12:21:57;98211.03;;;28.93;40.01
53526;BME280;40551;50.478;19.378;2022-08-03T12:24:40;98209.75;;;28.98;40.11
53526;BME280;40551;50.478;19.378;2022-08-03T12:27:25;98207.79;;;28.92;39.59
53526;BME280;40551;50.478;19.378;2022-08-03T12:30:00;98208.41;;;28.76;39.00
53526;BME280;40551;50.478;19.378;2022-08-03T12:32:35;98202.34;;;28.72;40.10
53526;BME280;40551;50.478;19.378;2022-08-03T12:35:08;98202.98;;;28.79;40.56
53526;BME280;40551;50.478;19.378;2022-08-03T12:37:40;98199.14;;;28.70;40.44
53526;BME280;40551;50.478;19.378;2022-08-03T12:40:24;98201.98;;;28.56;40.74
53526;BME280;40551;50.478;19.378;2022-08-03T12:42:58;98201.05;;;28.34;40.92
53526;BME280;40551;50.478;19.378;2022-08-03T12:45:30;98198.64;;;28.31;41.10
53526;BME280;40551;50.478;19.378;2022-08-03T12:48:10;98196.34;;;28.25;41.13
53526;BME280;40551;50.478;19.378;2022-08-03T12:50:42;98196.59;;;28.27;41.50
53526;BME280;40551;50.478;19.378;2022-08-03T12:53:28;98195.10;;;28.25;41.14
53526;BME280;40551;50.478;19.378;2022-08-03T12:56:04;98194.60;;;28.29;41.32
53526;BME280;40551;50.478;19.378;2022-08-03T12:58:36;98190.46;;;28.31;40.99
53526;BME280;40551;50.478;19.378;2022-08-03T13:01:07;98190.23;;;28.31;40.80
53526;BME280;40551;50.478;19.378;2022-08-03T13:03:45;98188.69;;;28.41;40.90
53526;BME280;40551;50.478;19.378;2022-08-03T13:06:23;98188.10;;;28.55;40.82
53526;BME280;40551;50.478;19.378;2022-08-03T13:09:06;98188.27;;;28.66;41.01
53526;BME280;40551;50.478;19.378;2022-08-03T13:11:38;98185.27;;;28.76;41.48
53526;BME280;40551;50.478;19.378;2022-08-03T13:14:31;98184.21;;;28.82;41.33
53526;BME280;40551;50.478;19.378;2022-08-03T13:17:03;98185.81;;;28.81;41.00
53526;BME280;40551;50.478;19.378;2022-08-03T13:34:22;98183.42;;;29.48;40.12
53526;BME280;40551;50.478;19.378;2022-08-03T13:36:51;98184.98;;;29.48;39.49
53526;BME280;40551;50.478;19.378;2022-08-03T13:39:37;98181.27;;;29.28;39.18
53526;BME280;40551;50.478;19.378;2022-08-03T13:42:25;98183.21;;;29.14;39.92
53526;BME280;40551;50.478;19.378;2022-08-03T13:44:54;98182.35;;;29.13;39.88
53526;BME280;40551;50.478;19.378;2022-08-03T13:47:22;98177.79;;;29.13;40.46
53526;BME280;40551;50.478;19.378;2022-08-03T13:49:51;98180.67;;;29.21;41.98
53526;BME280;40551;50.478;19.378;2022-08-03T13:52:30;98180.12;;;29.32;42.41
53526;BME280;40551;50.478;19.378;2022-08-03T13:54:59;98177.69;;;29.38;42.06